createdAt,value
2019-04-02T00:03:22.469Z,3.74
2019-04-02T00:08:30.724Z,3.97
2019-04-02T00:13:38.954Z,3.36
2019-04-02T00:18:47.300Z,4.42
2019-04-02T00:23:55.494Z,4.00
2019-04-02T00:29:03.767Z,3.06
2019-04-02T00:34:11.956Z,4.90
2019-04-02T00:39:20.177Z,4.19
2019-04-02T00:44:28.355Z,4.03
2019-04-02T00:49:36.507Z,3.72
2019-04-02T00:54:44.623Z,3.78
2019-04-02T00:59:52.888Z,3.74
2019-04-02T01:05:01.136Z,4.28
2019-04-02T01:10:01.331Z,4.80
2019-04-02T01:15:09.562Z,3.71
2019-04-02T01:20:17.818Z,4.07
2019-04-02T01:25:27.319Z,3.85
2019-04-02T01:30:33.958Z,5.17
2019-04-02T01:35:42.956Z,3.86
2019-04-02T01:40:51.160Z,3.63
2019-04-02T01:45:59.981Z,4.04
2019-04-02T01:51:08.106Z,4.18
2019-04-02T01:56:16.422Z,3.84
2019-04-02T02:01:24.542Z,4.33
2019-04-02T02:06:32.717Z,4.65
2019-04-02T02:11:40.913Z,4.87
2019-04-02T02:16:49.166Z,5.20
2019-04-02T02:21:56.505Z,4.12
2019-04-02T02:27:05.391Z,4.34
2019-04-02T02:32:12.794Z,4.43
2019-04-02T02:37:21.030Z,4.57
2019-04-02T02:42:29.216Z,5.19
2019-04-02T02:47:37.450Z,5.00
2019-04-02T02:52:45.698Z,5.41
2019-04-02T02:57:55.039Z,4.37
2019-04-02T03:03:01.597Z,5.06
2019-04-02T03:08:09.953Z,4.65
2019-04-02T03:13:18.211Z,5.08
2019-04-02T03:18:26.488Z,5.20
2019-04-02T03:23:34.858Z,4.13
2019-04-02T03:28:42.995Z,5.15
2019-04-02T03:33:51.577Z,4.89
2019-04-02T03:39:00.726Z,4.82
2019-04-02T03:44:06.594Z,5.59
2019-04-02T03:49:15.265Z,3.79
2019-04-02T03:54:23.311Z,5.80
2019-04-02T03:59:31.531Z,4.54
2019-04-02T04:04:39.755Z,5.24
2019-04-02T04:09:48.278Z,5.65
2019-04-02T04:14:56.304Z,4.27
2019-04-02T04:20:04.499Z,4.33
2019-04-02T04:25:12.908Z,6.39
2019-04-02T04:30:21.291Z,4.51
2019-04-02T04:35:29.554Z,5.05
2019-04-02T04:40:37.877Z,5.73
2019-04-02T04:45:46.125Z,4.70
2019-04-02T04:50:54.554Z,6.18
2019-04-02T04:56:06.785Z,5.19
2019-04-02T05:01:07.466Z,5.09
2019-04-02T05:06:15.643Z,6.37
2019-04-02T05:11:23.900Z,5.81
2019-04-02T05:16:32.372Z,4.85
2019-04-02T05:21:40.566Z,5.30
2019-04-02T05:26:49.407Z,4.73
2019-04-02T05:31:51.646Z,6.29
2019-04-02T05:36:56.514Z,6.36
2019-04-02T05:42:04.819Z,5.70
2019-04-02T05:47:13.131Z,6.13
2019-04-02T05:52:21.225Z,6.29
2019-04-02T05:57:29.378Z,6.63
2019-04-02T06:02:37.735Z,6.42
2019-04-02T06:07:45.930Z,5.47
2019-04-02T06:12:54.349Z,5.56
2019-04-02T06:18:02.753Z,5.88
2019-04-02T06:23:12.592Z,5.52
2019-04-02T06:28:18.993Z,6.09
2019-04-02T06:33:27.244Z,5.73
2019-04-02T06:38:35.346Z,5.97
2019-04-02T06:43:43.553Z,5.64
2019-04-02T06:48:52.220Z,5.74
2019-04-02T06:54:00.583Z,5.75
2019-04-02T06:59:09.024Z,6.60
2019-04-02T07:04:17.869Z,5.44
2019-04-02T07:09:26.135Z,6.57
2019-04-02T07:14:34.513Z,7.76
2019-04-02T07:19:42.982Z,7.79
2019-04-02T07:24:51.486Z,6.41
2019-04-02T07:29:59.885Z,6.19
2019-04-02T07:35:08.434Z,5.73
2019-04-02T07:40:17.072Z,7.00
2019-04-02T07:45:25.730Z,7.53
2019-04-02T07:50:34.183Z,7.46
2019-04-02T07:55:42.635Z,6.73
2019-04-02T08:00:53.017Z,8.27
2019-04-02T08:06:00.235Z,7.56
2019-04-02T08:11:06.947Z,6.63
2019-04-02T08:16:15.718Z,7.47
2019-04-02T08:21:23.065Z,6.11
2019-04-02T08:26:33.031Z,8.45
2019-04-02T08:31:38.687Z,7.72
2019-04-02T08:36:47.357Z,6.84
2019-04-02T08:41:55.538Z,8.11
2019-04-02T08:47:03.941Z,8.70
2019-04-02T08:52:12.534Z,7.70
2019-04-02T08:57:21.143Z,8.30
2019-04-02T09:02:29.681Z,6.54
2019-04-02T09:07:37.987Z,6.94
2019-04-02T09:12:46.239Z,7.38
2019-04-02T09:17:54.725Z,8.01
2019-04-02T09:23:03.174Z,7.37
2019-04-02T09:28:16.811Z,9.52
2019-04-02T09:33:14.665Z,9.10
2019-04-02T09:38:22.883Z,8.38
2019-04-02T09:43:31.141Z,8.52
2019-04-02T09:48:39.435Z,7.65
2019-04-02T09:53:47.633Z,9.03
2019-04-02T09:58:55.961Z,9.96
2019-04-02T10:04:04.111Z,8.57
2019-04-02T10:09:12.210Z,9.08
2019-04-02T10:14:20.449Z,9.06
2019-04-02T10:19:28.575Z,9.03
2019-04-02T10:24:36.717Z,8.91
2019-04-02T10:29:44.930Z,9.44
2019-04-02T10:34:53.199Z,9.42
2019-04-02T10:40:01.421Z,9.12
2019-04-02T10:45:09.519Z,8.97
2019-04-02T10:50:17.738Z,8.64
2019-04-02T10:55:27.608Z,8.80
2019-04-02T11:00:33.882Z,9.47
2019-04-02T11:05:42.155Z,9.19
2019-04-02T11:10:50.286Z,8.67
2019-04-02T11:15:58.482Z,11.11
2019-04-02T11:21:07.757Z,9.59
2019-04-02T11:26:14.197Z,11.92
2019-04-02T11:31:22.568Z,10.46
2019-04-02T11:36:30.807Z,10.63
2019-04-02T11:41:38.971Z,12.46
2019-04-02T11:46:47.174Z,12.91
2019-04-02T11:51:55.498Z,12.78
2019-04-02T12:02:12.930Z,13.03
2019-04-02T12:07:21.140Z,14.50
2019-04-02T12:12:29.486Z,13.35
2019-04-02T12:17:37.779Z,12.78
2019-04-02T12:27:56.453Z,13.15
2019-04-02T12:33:01.913Z,15.66
2019-04-02T12:38:11.557Z,13.98
2019-04-02T12:58:41.866Z,13.84
2019-04-02T13:08:58.558Z,13.98
2019-04-02T13:14:06.697Z,14.03
2019-04-02T13:19:15.001Z,13.88
2019-04-02T13:24:26.551Z,14.68
2019-04-02T13:29:31.109Z,13.37
2019-04-02T13:34:39.294Z,13.84
2019-04-02T13:39:47.492Z,15.59
2019-04-02T13:50:04.154Z,14.34
2019-04-02T13:55:12.270Z,15.23
2019-04-02T14:00:20.527Z,14.72
2019-04-02T14:05:29.202Z,14.56
2019-04-02T14:10:36.479Z,14.44
2019-04-02T14:15:44.787Z,14.77
2019-04-02T14:20:52.940Z,14.58
2019-04-02T14:26:01.173Z,13.37
2019-04-02T14:31:09.385Z,13.93
2019-04-02T14:36:17.742Z,14.99
2019-04-02T14:41:25.813Z,13.99
2019-04-02T14:46:34.037Z,14.06
2019-04-02T14:51:42.253Z,13.80
2019-04-02T14:56:50.831Z,14.19
2019-04-02T15:02:00.514Z,14.10
2019-04-02T15:07:09.514Z,13.74
2019-04-02T15:12:18.644Z,13.46
2019-04-02T15:17:27.473Z,13.23
2019-04-02T15:22:35.756Z,13.02
2019-04-02T15:27:50.093Z,12.13
2019-04-02T15:32:54.731Z,13.59
2019-04-02T15:37:54.530Z,13.41
2019-04-02T15:43:02.871Z,13.09
2019-04-02T15:48:11.054Z,14.96
2019-04-02T15:53:19.355Z,14.63
2019-04-02T15:58:27.773Z,14.53
2019-04-02T16:03:36.072Z,13.80
2019-04-02T16:08:44.354Z,14.15
2019-04-02T16:13:52.629Z,13.89
2019-04-02T16:19:00.925Z,13.60
2019-04-02T16:24:09.602Z,12.69
2019-04-02T16:29:17.353Z,15.03
2019-04-02T16:34:37.595Z,13.51
2019-04-02T16:39:33.414Z,14.53
2019-04-02T16:44:41.658Z,15.65
2019-04-02T16:49:50.235Z,14.22
2019-04-02T16:54:58.326Z,14.11
2019-04-02T17:00:06.540Z,15.12
2019-04-02T17:05:14.733Z,14.22
2019-04-02T17:10:23.155Z,14.54
2019-04-02T17:15:31.362Z,14.53
2019-04-02T17:20:40.320Z,14.27
2019-04-02T17:25:47.358Z,13.76
2019-04-02T17:30:56.596Z,14.52
2019-04-02T17:36:04.709Z,14.05
2019-04-02T17:41:12.879Z,14.15
2019-04-02T17:46:21.126Z,15.09
2019-04-02T17:51:29.306Z,15.43
2019-04-02T17:56:37.517Z,14.04
2019-04-02T18:01:46.117Z,14.25
2019-04-02T18:06:54.977Z,14.31
2019-04-02T18:12:02.159Z,16.20
2019-04-02T18:17:08.786Z,15.24
2019-04-02T18:22:17.182Z,16.45
2019-04-02T18:27:25.505Z,15.29
2019-04-02T18:32:33.690Z,14.69
2019-04-02T18:37:41.921Z,15.67
2019-04-02T18:42:50.161Z,15.16
2019-04-02T18:47:58.728Z,15.62
2019-04-02T18:53:07.082Z,15.69
2019-04-02T18:58:15.082Z,15.02
2019-04-02T19:03:29.989Z,15.48
2019-04-02T19:08:25.487Z,16.30
2019-04-02T19:13:33.739Z,14.94
2019-04-02T19:18:41.923Z,16.47
2019-04-02T19:23:55.143Z,19.17
2019-04-02T19:28:51.073Z,18.80
2019-04-02T19:34:00.294Z,18.53
2019-04-02T19:39:08.518Z,20.51
2019-04-02T19:44:16.641Z,18.55
2019-04-02T19:49:24.834Z,18.58
2019-04-02T19:54:33.031Z,17.63
2019-04-02T19:59:41.237Z,19.06
2019-04-02T20:04:49.396Z,19.20
2019-04-02T20:09:57.625Z,18.42
2019-04-02T20:15:06.186Z,20.03
2019-04-02T20:20:16.709Z,18.53
2019-04-02T20:25:15.614Z,17.36
2019-04-02T20:30:23.393Z,17.37
2019-04-02T20:35:31.545Z,17.82
2019-04-02T20:40:40.034Z,18.27
2019-04-02T20:45:48.517Z,22.58
2019-04-02T20:50:56.709Z,19.14
2019-04-02T20:56:05.198Z,19.41
2019-04-02T21:01:14.779Z,19.48
2019-04-02T21:06:21.283Z,20.31
2019-04-02T21:11:29.477Z,20.21
2019-04-02T21:16:40.328Z,19.99
2019-04-02T21:21:48.154Z,19.35
2019-04-02T21:26:52.959Z,18.79
2019-04-02T21:32:01.233Z,18.59
2019-04-02T21:37:09.384Z,18.93
2019-04-02T21:42:17.553Z,19.56
2019-04-02T21:47:26.653Z,20.59
2019-04-02T21:52:35.718Z,19.08
2019-04-02T21:57:35.598Z,21.00
2019-04-02T22:02:43.999Z,20.14
2019-04-02T22:07:52.352Z,21.13
2019-04-02T22:13:00.658Z,19.30
2019-04-02T22:18:09.565Z,20.22
2019-04-02T22:23:17.842Z,20.94
2019-04-02T22:28:25.978Z,20.83
2019-04-02T22:33:37.372Z,20.38
2019-04-02T22:38:41.762Z,20.31
2019-04-02T22:43:49.927Z,20.59
2019-04-02T22:48:58.044Z,20.73
2019-04-02T22:54:06.441Z,20.53
2019-04-02T22:59:14.812Z,19.69
2019-04-02T23:04:22.903Z,19.00
2019-04-02T23:09:31.550Z,20.19
2019-04-02T23:14:38.465Z,21.52
2019-04-02T23:19:46.684Z,23.30
2019-04-02T23:24:54.998Z,22.83
2019-04-02T23:30:03.230Z,23.92
2019-04-02T23:35:11.490Z,22.10
2019-04-02T23:40:19.738Z,22.27
2019-04-02T23:45:27.926Z,21.99
2019-04-02T23:50:36.027Z,21.64
2019-04-02T23:55:44.351Z,23.24
